sensor_id;sensor_type;location;lat;lon;timestamp;pressure;altitude;pressure_sealevel;temperature;humidity
71109;BME280;59614;51.012;-1.648;2023-04-25T00:02:11;100643.91;;;5.96;94.30
71109;BME280;59614;51.012;-1.648;2023-04-25T00:04:36;100646.44;;;5.82;93.81
71109;BME280;59614;51.012;-1.648;2023-04-25T00:07:03;100641.25;;;5.85;93.78
71109;BME280;59614;51.012;-1.648;2023-04-25T00:09:29;100629.81;;;5.77;93.17
71109;BME280;59614;51.012;-1.648;2023-04-25T00:11:55;100638.50;;;5.71;93.16
71109;BME280;59614;51.012;-1.648;2023-04-25T00:14:20;100641.13;;;5.68;93.04
71109;BME280;59614;51.012;-1.648;2023-04-25T00:16:46;100643.63;;;5.54;92.96
71109;BME280;59614;51.012;-1.648;2023-04-25T00:19:11;100638.44;;;5.62;92.88
71109;BME280;59614;51.012;-1.648;2023-04-25T00:21:38;100641.88;;;5.50;93.08
71109;BME280;59614;51.012;-1.648;2023-04-25T00:24:06;100648.75;;;5.41;92.29
71109;BME280;59614;51.012;-1.648;2023-04-25T00:26:33;100639.19;;;5.44;92.23
71109;BME280;59614;51.012;-1.648;2023-04-25T00:28:59;100646.13;;;5.41;92.61
71109;BME280;59614;51.012;-1.648;2023-04-25T00:31:25;100655.72;;;5.36;92.50
71109;BME280;59614;51.012;-1.648;2023-04-25T00:33:50;100657.38;;;5.30;92.74
71109;BME280;59614;51.012;-1.648;2023-04-25T00:36:15;100666.97;;;5.26;92.80
71109;BME280;59614;51.012;-1.648;2023-04-25T00:38:42;100660.00;;;5.31;92.38
71109;BME280;59614;51.012;-1.648;2023-04-25T00:41:07;100658.16;;;5.18;92.15
71109;BME280;59614;51.012;-1.648;2023-04-25T00:43:33;100659.94;;;5.22;92.08
71109;BME280;59614;51.012;-1.648;2023-04-25T00:46:00;100654.78;;;5.28;92.19
71109;BME280;59614;51.012;-1.648;2023-04-25T00:48:25;100661.66;;;5.17;91.92
71109;BME280;59614;51.012;-1.648;2023-04-25T00:50:55;100664.16;;;5.07;92.65
71109;BME280;59614;51.012;-1.648;2023-04-25T00:53:22;100668.56;;;5.12;92.38
71109;BME280;59614;51.012;-1.648;2023-04-25T00:55:49;100666.84;;;5.14;91.91
71109;BME280;59614;51.012;-1.648;2023-04-25T00:58:17;100663.28;;;5.08;91.64
71109;BME280;59614;51.012;-1.648;2023-04-25T01:00:44;100665.84;;;5.01;92.08
71109;BME280;59614;51.012;-1.648;2023-04-25T01:03:10;100667.53;;;4.95;92.71
71109;BME280;59614;51.012;-1.648;2023-04-25T01:05:36;100675.38;;;4.97;92.65
71109;BME280;59614;51.012;-1.648;2023-04-25T01:08:02;100682.38;;;4.97;92.87
71109;BME280;59614;51.012;-1.648;2023-04-25T01:10:27;100694.53;;;4.93;93.38
71109;BME280;59614;51.012;-1.648;2023-04-25T01:12:53;100697.97;;;4.89;93.52
71109;BME280;59614;51.012;-1.648;2023-04-25T01:15:19;100699.72;;;4.91;93.11
71109;BME280;59614;51.012;-1.648;2023-04-25T01:17:44;100699.81;;;4.99;93.39
71109;BME280;59614;51.012;-1.648;2023-04-25T01:20:11;100713.81;;;5.01;93.62
71109;BME280;59614;51.012;-1.648;2023-04-25T01:22:36;100705.84;;;4.92;92.88
71109;BME280;59614;51.012;-1.648;2023-04-25T01:25:03;100711.09;;;4.92;93.57
71109;BME280;59614;51.012;-1.648;2023-04-25T01:27:29;100714.56;;;4.91;93.13
71109;BME280;59614;51.012;-1.648;2023-04-25T01:29:55;100715.41;;;4.90;92.84
71109;BME280;59614;51.012;-1.648;2023-04-25T01:32:22;100714.53;;;4.88;93.07
71109;BME280;59614;51.012;-1.648;2023-04-25T01:34:48;100712.72;;;4.82;93.05
71109;BME280;59614;51.012;-1.648;2023-04-25T01:37:14;100725.75;;;4.79;93.47
71109;BME280;59614;51.012;-1.648;2023-04-25T01:39:40;100720.44;;;4.71;93.52
71109;BME280;59614;51.012;-1.648;2023-04-25T01:42:06;100721.25;;;4.69;94.38
71109;BME280;59614;51.012;-1.648;2023-04-25T01:44:31;100726.59;;;4.76;94.27
71109;BME280;59614;51.012;-1.648;2023-04-25T01:46:57;100727.44;;;4.72;94.26
71109;BME280;59614;51.012;-1.648;2023-04-25T01:49:22;100715.13;;;4.65;94.38
71109;BME280;59614;51.012;-1.648;2023-04-25T01:51:48;100712.28;;;4.48;94.06
71109;BME280;59614;51.012;-1.648;2023-04-25T01:54:14;100723.75;;;4.58;93.71
71109;BME280;59614;51.012;-1.648;2023-04-25T01:56:40;100713.28;;;4.58;93.88
71109;BME280;59614;51.012;-1.648;2023-04-25T01:59:05;100716.88;;;4.64;93.26
71109;BME280;59614;51.012;-1.648;2023-04-25T02:01:31;100714.19;;;4.60;93.16
71109;BME280;59614;51.012;-1.648;2023-04-25T02:03:57;100718.44;;;4.52;92.97
71109;BME280;59614;51.012;-1.648;2023-04-25T02:06:23;100720.81;;;4.33;93.70
71109;BME280;59614;51.012;-1.648;2023-04-25T02:08:48;100706.59;;;4.14;94.37
71109;BME280;59614;51.012;-1.648;2023-04-25T02:11:13;100703.06;;;4.10;94.05
71109;BME280;59614;51.012;-1.648;2023-04-25T02:13:39;100713.44;;;4.04;93.98
71109;BME280;59614;51.012;-1.648;2023-04-25T02:16:05;100712.66;;;4.11;93.53
71109;BME280;59614;51.012;-1.648;2023-04-25T02:18:30;100712.84;;;4.24;92.70
71109;BME280;59614;51.012;-1.648;2023-04-25T02:20:58;100719.91;;;4.31;91.20
71109;BME280;59614;51.012;-1.648;2023-04-25T02:23:24;100722.56;;;4.36;90.09
71109;BME280;59614;51.012;-1.648;2023-04-25T02:25:50;100730.44;;;4.37;89.72
71109;BME280;59614;51.012;-1.648;2023-04-25T02:28:16;100734.84;;;4.41;89.98
71109;BME280;59614;51.012;-1.648;2023-04-25T02:30:41;100741.94;;;4.50;90.59
71109;BME280;59614;51.012;-1.648;2023-04-25T02:33:07;100736.50;;;4.35;91.09
71109;BME280;59614;51.012;-1.648;2023-04-25T02:35:32;100733.94;;;4.39;92.30
71109;BME280;59614;51.012;-1.648;2023-04-25T02:37:57;100742.56;;;4.32;92.60
71109;BME280;59614;51.012;-1.648;2023-04-25T02:40:23;100744.13;;;4.19;92.91
71109;BME280;59614;51.012;-1.648;2023-04-25T02:42:48;100740.53;;;4.12;94.37
71109;BME280;59614;51.012;-1.648;2023-04-25T02:45:14;100737.88;;;4.09;94.32
71109;BME280;59614;51.012;-1.648;2023-04-25T02:47:39;100732.75;;;4.15;95.33
71109;BME280;59614;51.012;-1.648;2023-04-25T02:50:05;100736.97;;;4.07;95.69
71109;BME280;59614;51.012;-1.648;2023-04-25T02:52:31;100738.59;;;3.99;95.41
71109;BME280;59614;51.012;-1.648;2023-04-25T02:54:56;100746.50;;;4.04;95.80
71109;BME280;59614;51.012;-1.648;2023-04-25T02:57:22;100748.13;;;3.97;96.29
71109;BME280;59614;51.012;-1.648;2023-04-25T02:59:47;100750.72;;;3.94;95.27
71109;BME280;59614;51.012;-1.648;2023-04-25T03:02:12;100758.50;;;3.92;95.14
71109;BME280;59614;51.012;-1.648;2023-04-25T03:04:38;100759.41;;;3.93;94.74
71109;BME280;59614;51.012;-1.648;2023-04-25T03:07:03;100762.03;;;3.94;94.88
71109;BME280;59614;51.012;-1.648;2023-04-25T03:09:29;100764.56;;;3.90;94.42
71109;BME280;59614;51.012;-1.648;2023-04-25T03:11:55;100766.28;;;3.89;94.37
71109;BME280;59614;51.012;-1.648;2023-04-25T03:14:20;100758.34;;;3.81;93.15
71109;BME280;59614;51.012;-1.648;2023-04-25T03:16:45;100764.56;;;3.90;92.54
71109;BME280;59614;51.012;-1.648;2023-04-25T03:19:11;100761.94;;;3.88;91.47
71109;BME280;59614;51.012;-1.648;2023-04-25T03:21:37;100767.97;;;3.85;91.32
71109;BME280;59614;51.012;-1.648;2023-04-25T03:24:03;100775.88;;;3.90;90.98
71109;BME280;59614;51.012;-1.648;2023-04-25T03:26:29;100769.72;;;3.86;89.89
71109;BME280;59614;51.012;-1.648;2023-04-25T03:28:54;100762.78;;;3.87;89.20
71109;BME280;59614;51.012;-1.648;2023-04-25T03:31:20;100776.72;;;3.88;88.52
71109;BME280;59614;51.012;-1.648;2023-04-25T03:33:46;100779.25;;;3.83;88.06
71109;BME280;59614;51.012;-1.648;2023-04-25T03:36:12;100783.50;;;3.78;87.82
71109;BME280;59614;51.012;-1.648;2023-04-25T03:38:38;100786.94;;;3.75;88.04
71109;BME280;59614;51.012;-1.648;2023-04-25T03:41:03;100775.72;;;3.81;87.54
71109;BME280;59614;51.012;-1.648;2023-04-25T03:43:29;100778.31;;;3.79;87.90
71109;BME280;59614;51.012;-1.648;2023-04-25T03:45:54;100787.94;;;3.83;87.60
71109;BME280;59614;51.012;-1.648;2023-04-25T03:48:20;100788.06;;;3.88;86.63
71109;BME280;59614;51.012;-1.648;2023-04-25T03:50:47;100792.44;;;3.91;86.64
71109;BME280;59614;51.012;-1.648;2023-04-25T03:53:13;100799.41;;;3.92;86.19
71109;BME280;59614;51.012;-1.648;2023-04-25T03:55:38;100801.97;;;3.87;85.96
71109;BME280;59614;51.012;-1.648;2023-04-25T03:58:04;100798.50;;;3.88;86.54
71109;BME280;59614;51.012;-1.648;2023-04-25T04:00:30;100802.66;;;3.77;86.16
71109;BME280;59614;51.012;-1.648;2023-04-25T04:02:55;100807.19;;;3.89;85.89
71109;BME280;59614;51.012;-1.648;2023-04-25T04:05:21;100808.16;;;3.94;85.73
71109;BME280;59614;51.012;-1.648;2023-04-25T04:07:46;100796.81;;;3.92;86.16
71109;BME280;59614;51.012;-1.648;2023-04-25T04:10:11;100804.69;;;3.95;85.95
71109;BME280;59614;51.012;-1.648;2023-04-25T04:12:37;100807.09;;;3.82;85.69
71109;BME280;59614;51.012;-1.648;2023-04-25T04:15:04;100816.63;;;3.80;88.05
71109;BME280;59614;51.012;-1.648;2023-04-25T04:17:31;100814.97;;;3.85;87.17
71109;BME280;59614;51.012;-1.648;2023-04-25T04:19:56;100815.81;;;3.83;87.59
71109;BME280;59614;51.012;-1.648;2023-04-25T04:22:22;100819.13;;;3.74;87.33
71109;BME280;59614;51.012;-1.648;2023-04-25T04:24:48;100818.09;;;3.64;86.39
71109;BME280;59614;51.012;-1.648;2023-04-25T04:27:15;100817.50;;;3.81;88.02
71109;BME280;59614;51.012;-1.648;2023-04-25T04:29:42;100818.31;;;3.77;87.39
71109;BME280;59614;51.012;-1.648;2023-04-25T04:32:08;100820.63;;;3.61;87.18
71109;BME280;59614;51.012;-1.648;2023-04-25T04:34:34;100831.00;;;3.58;86.64
71109;BME280;59614;51.012;-1.648;2023-04-25T04:37:00;100829.91;;;3.45;86.31
71109;BME280;59614;51.012;-1.648;2023-04-25T04:39:25;100826.97;;;3.28;88.42
71109;BME280;59614;51.012;-1.648;2023-04-25T04:41:51;100831.84;;;3.11;89.26
71109;BME280;59614;51.012;-1.648;2023-04-25T04:44:16;100835.19;;;3.04;89.60
71109;BME280;59614;51.012;-1.648;2023-04-25T04:46:42;100829.66;;;3.33;88.16
71109;BME280;59614;51.012;-1.648;2023-04-25T04:49:11;100841.03;;;3.36;87.08
71109;BME280;59614;51.012;-1.648;2023-04-25T04:51:38;100840.19;;;3.36;86.76
71109;BME280;59614;51.012;-1.648;2023-04-25T04:54:04;100836.50;;;3.26;86.34
71109;BME280;59614;51.012;-1.648;2023-04-25T04:56:30;100838.41;;;3.35;85.87
71109;BME280;59614;51.012;-1.648;2023-04-25T04:58:59;100837.50;;;3.33;85.48
71109;BME280;59614;51.012;-1.648;2023-04-25T05:01:25;100839.25;;;3.34;85.05
71109;BME280;59614;51.012;-1.648;2023-04-25T05:03:51;100841.94;;;3.37;85.80
71109;BME280;59614;51.012;-1.648;2023-04-25T05:06:18;100854.09;;;3.38;85.15
71109;BME280;59614;51.012;-1.648;2023-04-25T05:08:43;100860.19;;;3.37;84.88
71109;BME280;59614;51.012;-1.648;2023-04-25T05:11:09;100864.53;;;3.38;84.86
71109;BME280;59614;51.012;-1.648;2023-04-25T05:13:35;100869.75;;;3.38;84.64
71109;BME280;59614;51.012;-1.648;2023-04-25T05:16:00;100871.22;;;3.23;84.51
71109;BME280;59614;51.012;-1.648;2023-04-25T05:18:26;100876.47;;;3.25;84.33
71109;BME280;59614;51.012;-1.648;2023-04-25T05:20:51;100876.63;;;3.33;85.12
71109;BME280;59614;51.012;-1.648;2023-04-25T05:23:16;100896.59;;;3.31;85.30
71109;BME280;59614;51.012;-1.648;2023-04-25T05:25:42;100890.53;;;3.32;84.85
71109;BME280;59614;51.012;-1.648;2023-04-25T05:28:07;100895.75;;;3.32;84.80
71109;BME280;59614;51.012;-1.648;2023-04-25T05:30:34;100896.78;;;3.40;84.45
71109;BME280;59614;51.012;-1.648;2023-04-25T05:32:59;100896.94;;;3.49;85.52
71109;BME280;59614;51.012;-1.648;2023-04-25T05:35:26;100899.63;;;3.51;84.50
71109;BME280;59614;51.012;-1.648;2023-04-25T05:37:52;100907.50;;;3.54;84.58
71109;BME280;59614;51.012;-1.648;2023-04-25T05:40:17;100915.78;;;3.34;84.56
71109;BME280;59614;51.012;-1.648;2023-04-25T05:42:43;100908.13;;;3.42;84.47
71109;BME280;59614;51.012;-1.648;2023-04-25T05:45:09;100920.22;;;3.37;84.20
71109;BME280;59614;51.012;-1.648;2023-04-25T05:47:34;100907.38;;;3.48;84.78
71109;BME280;59614;51.012;-1.648;2023-04-25T05:50:00;100922.78;;;3.35;84.08
71109;BME280;59614;51.012;-1.648;2023-04-25T05:52:25;100916.97;;;3.49;83.49
71109;BME280;59614;51.012;-1.648;2023-04-25T05:54:51;100910.00;;;3.49;84.05
71109;BME280;59614;51.012;-1.648;2023-04-25T05:57:24;100918.63;;;3.45;83.65
71109;BME280;59614;51.012;-1.648;2023-04-25T05:59:50;100922.09;;;3.44;83.62
71109;BME280;59614;51.012;-1.648;2023-04-25T06:02:18;100912.56;;;3.46;83.76
71109;BME280;59614;51.012;-1.648;2023-04-25T06:04:43;100905.94;;;3.64;83.21
71109;BME280;59614;51.012;-1.648;2023-04-25T06:07:09;100913.97;;;3.73;83.40
71109;BME280;59614;51.012;-1.648;2023-04-25T06:09:35;100908.63;;;3.67;83.07
71109;BME280;59614;51.012;-1.648;2023-04-25T06:12:00;100918.88;;;3.58;82.71
71109;BME280;59614;51.012;-1.648;2023-04-25T06:14:26;100920.84;;;3.68;82.43
71109;BME280;59614;51.012;-1.648;2023-04-25T06:16:52;100925.28;;;3.74;82.33
71109;BME280;59614;51.012;-1.648;2023-04-25T06:19:18;100931.75;;;3.93;82.91
71109;BME280;59614;51.012;-1.648;2023-04-25T06:21:44;100930.22;;;4.04;82.09
71109;BME280;59614;51.012;-1.648;2023-04-25T06:24:09;100932.09;;;4.11;81.54
71109;BME280;59614;51.012;-1.648;2023-04-25T06:26:35;100929.56;;;4.16;81.49
71109;BME280;59614;51.012;-1.648;2023-04-25T06:29:00;100949.44;;;4.08;81.40
71109;BME280;59614;51.012;-1.648;2023-04-25T06:31:26;100938.44;;;4.26;80.77
71109;BME280;59614;51.012;-1.648;2023-04-25T06:33:51;100940.59;;;4.48;80.94
71109;BME280;59614;51.012;-1.648;2023-04-25T06:36:20;100948.38;;;4.45;80.46
71109;BME280;59614;51.012;-1.648;2023-04-25T06:38:52;100946.81;;;4.57;80.41
71109;BME280;59614;51.012;-1.648;2023-04-25T06:41:18;100955.84;;;4.77;79.41
71109;BME280;59614;51.012;-1.648;2023-04-25T06:43:44;100954.28;;;4.87;77.84
71109;BME280;59614;51.012;-1.648;2023-04-25T06:46:09;100952.09;;;5.17;78.22
71109;BME280;59614;51.012;-1.648;2023-04-25T06:48:35;100951.25;;;5.18;77.67
71109;BME280;59614;51.012;-1.648;2023-04-25T06:51:00;100945.72;;;5.62;77.99
71109;BME280;59614;51.012;-1.648;2023-04-25T06:53:26;100955.31;;;5.63;75.71
71109;BME280;59614;51.012;-1.648;2023-04-25T06:55:51;100954.69;;;5.83;74.89
71109;BME280;59614;51.012;-1.648;2023-04-25T06:58:17;100957.31;;;5.83;73.31
71109;BME280;59614;51.012;-1.648;2023-04-25T07:00:43;100956.00;;;6.21;73.21
71109;BME280;59614;51.012;-1.648;2023-04-25T07:03:08;100956.06;;;6.30;72.31
71109;BME280;59614;51.012;-1.648;2023-04-25T07:05:33;100950.00;;;6.37;71.69
71109;BME280;59614;51.012;-1.648;2023-04-25T07:07:59;100954.41;;;6.37;71.41
71109;BME280;59614;51.012;-1.648;2023-04-25T07:10:25;100958.91;;;6.53;70.75
71109;BME280;59614;51.012;-1.648;2023-04-25T07:12:50;100954.44;;;6.41;70.71
71109;BME280;59614;51.012;-1.648;2023-04-25T07:15:16;100956.56;;;6.84;71.23
71109;BME280;59614;51.012;-1.648;2023-04-25T07:17:41;100961.03;;;6.98;68.80
71109;BME280;59614;51.012;-1.648;2023-04-25T07:20:07;100965.44;;;7.05;69.32
71109;BME280;59614;51.012;-1.648;2023-04-25T07:22:34;100963.59;;;6.91;68.63
71109;BME280;59614;51.012;-1.648;2023-04-25T07:24:59;100969.78;;;7.03;67.85
71109;BME280;59614;51.012;-1.648;2023-04-25T07:27:25;100974.41;;;7.44;69.45
71109;BME280;59614;51.012;-1.648;2023-04-25T07:29:50;100964.06;;;7.77;68.60
71109;BME280;59614;51.012;-1.648;2023-04-25T07:32:16;100964.88;;;7.62;66.13
71109;BME280;59614;51.012;-1.648;2023-04-25T07:34:41;100966.66;;;7.69;66.93
71109;BME280;59614;51.012;-1.648;2023-04-25T07:37:07;100972.75;;;7.62;66.04
71109;BME280;59614;51.012;-1.648;2023-04-25T07:39:32;100971.91;;;7.69;66.30
71109;BME280;59614;51.012;-1.648;2023-04-25T07:41:58;100959.72;;;7.89;68.58
71109;BME280;59614;51.012;-1.648;2023-04-25T07:44:24;100954.53;;;8.13;67.04
71109;BME280;59614;51.012;-1.648;2023-04-25T07:46:50;100962.41;;;8.03;65.71
71109;BME280;59614;51.012;-1.648;2023-04-25T07:49:16;100953.69;;;8.34;68.35
71109;BME280;59614;51.012;-1.648;2023-04-25T07:51:41;100953.72;;;8.84;66.69
71109;BME280;59614;51.012;-1.648;2023-04-25T07:54:09;100960.75;;;8.47;63.90
71109;BME280;59614;51.012;-1.648;2023-04-25T07:56:34;100965.09;;;8.45;62.52
71109;BME280;59614;51.012;-1.648;2023-04-25T07:59:00;100960.75;;;8.81;65.89
71109;BME280;59614;51.012;-1.648;2023-04-25T08:01:25;100975.59;;;8.30;62.05
71109;BME280;59614;51.012;-1.648;2023-04-25T08:03:53;100976.56;;;8.75;65.17
71109;BME280;59614;51.012;-1.648;2023-04-25T08:06:18;100978.31;;;8.86;59.64
71109;BME280;59614;51.012;-1.648;2023-04-25T08:08:44;100971.19;;;9.43;64.66
71109;BME280;59614;51.012;-1.648;2023-04-25T08:11:10;100977.41;;;9.05;61.29
71109;BME280;59614;51.012;-1.648;2023-04-25T08:13:35;100979.09;;;9.36;60.05
71109;BME280;59614;51.012;-1.648;2023-04-25T08:16:01;100976.50;;;9.31;58.99
71109;BME280;59614;51.012;-1.648;2023-04-25T08:18:26;100969.34;;;9.67;61.63
71109;BME280;59614;51.012;-1.648;2023-04-25T08:20:52;100984.38;;;9.43;61.82
71109;BME280;59614;51.012;-1.648;2023-04-25T08:23:17;100976.19;;;10.02;58.78
71109;BME280;59614;51.012;-1.648;2023-04-25T08:25:42;100984.91;;;10.17;58.10
71109;BME280;59614;51.012;-1.648;2023-04-25T08:28:08;100978.59;;;10.49;59.84
71109;BME280;59614;51.012;-1.648;2023-04-25T08:30:34;100977.22;;;9.70;56.92
71109;BME280;59614;51.012;-1.648;2023-04-25T08:33:00;100971.03;;;9.84;60.86
71109;BME280;59614;51.012;-1.648;2023-04-25T08:35:28;100968.47;;;9.62;60.85
71109;BME280;59614;51.012;-1.648;2023-04-25T08:37:53;100969.91;;;10.30;60.64
71109;BME280;59614;51.012;-1.648;2023-04-25T08:40:19;100971.16;;;9.56;61.45
71109;BME280;59614;51.012;-1.648;2023-04-25T08:42:52;100968.91;;;10.51;57.29
71109;BME280;59614;51.012;-1.648;2023-04-25T08:45:18;100972.47;;;10.47;54.34
71109;BME280;59614;51.012;-1.648;2023-04-25T08:47:45;100967.59;;;9.66;56.44
71109;BME280;59614;51.012;-1.648;2023-04-25T08:50:10;100979.91;;;9.61;53.80
71109;BME280;59614;51.012;-1.648;2023-04-25T08:52:44;100972.88;;;9.57;52.62
71109;BME280;59614;51.012;-1.648;2023-04-25T08:55:12;100969.94;;;10.20;54.38
71109;BME280;59614;51.012;-1.648;2023-04-25T08:57:40;100973.25;;;10.60;55.65
71109;BME280;59614;51.012;-1.648;2023-04-25T09:00:09;100970.53;;;10.68;56.68
71109;BME280;59614;51.012;-1.648;2023-04-25T09:02:35;100965.00;;;10.99;55.47
71109;BME280;59614;51.012;-1.648;2023-04-25T09:05:02;100966.97;;;10.75;53.72
71109;BME280;59614;51.012;-1.648;2023-04-25T09:07:29;100972.94;;;10.97;54.44
71109;BME280;59614;51.012;-1.648;2023-04-25T09:09:55;100976.19;;;11.24;52.26
71109;BME280;59614;51.012;-1.648;2023-04-25T09:12:21;100963.59;;;11.48;51.96
71109;BME280;59614;51.012;-1.648;2023-04-25T09:15:06;100968.06;;;10.46;53.38
71109;BME280;59614;51.012;-1.648;2023-04-25T09:17:32;100973.78;;;11.01;56.03
71109;BME280;59614;51.012;-1.648;2023-04-25T09:20:06;100968.13;;;11.36;50.41
71109;BME280;59614;51.012;-1.648;2023-04-25T09:22:32;100970.28;;;10.99;50.65
71109;BME280;59614;51.012;-1.648;2023-04-25T09:25:03;100965.22;;;10.71;51.31
71109;BME280;59614;51.012;-1.648;2023-04-25T09:27:29;100962.13;;;10.07;53.38
71109;BME280;59614;51.012;-1.648;2023-04-25T09:29:58;100970.63;;;11.49;51.66
71109;BME280;59614;51.012;-1.648;2023-04-25T09:32:25;100966.50;;;11.24;53.70
71109;BME280;59614;51.012;-1.648;2023-04-25T09:34:52;100961.31;;;11.90;50.65
71109;BME280;59614;51.012;-1.648;2023-04-25T09:39:57;100951.81;;;11.75;52.29
71109;BME280;59614;51.012;-1.648;2023-04-25T09:42:30;100949.75;;;11.99;51.41
71109;BME280;59614;51.012;-1.648;2023-04-25T09:44:57;100949.59;;;13.18;48.90
71109;BME280;59614;51.012;-1.648;2023-04-25T09:47:26;100951.56;;;11.98;47.56
71109;BME280;59614;51.012;-1.648;2023-04-25T09:49:53;100963.22;;;11.01;49.10
71109;BME280;59614;51.012;-1.648;2023-04-25T09:52:23;100964.66;;;11.33;50.12
71109;BME280;59614;51.012;-1.648;2023-04-25T09:54:50;100957.16;;;10.89;50.06
71109;BME280;59614;51.012;-1.648;2023-04-25T09:57:20;100955.38;;;12.36;48.34
71109;BME280;59614;51.012;-1.648;2023-04-25T09:59:48;100959.91;;;12.31;48.79
71109;BME280;59614;51.012;-1.648;2023-04-25T10:02:16;100954.16;;;12.61;46.96
71109;BME280;59614;51.012;-1.648;2023-04-25T10:04:42;100954.13;;;11.26;48.94
71109;BME280;59614;51.012;-1.648;2023-04-25T10:07:11;100959.00;;;12.32;48.45
71109;BME280;59614;51.012;-1.648;2023-04-25T10:09:38;100962.22;;;11.87;50.10
71109;BME280;59614;51.012;-1.648;2023-04-25T10:12:06;100958.22;;;12.80;49.61
71109;BME280;59614;51.012;-1.648;2023-04-25T10:14:32;100961.28;;;13.56;43.66
71109;BME280;59614;51.012;-1.648;2023-04-25T10:16:58;100972.16;;;12.90;47.66
71109;BME280;59614;51.012;-1.648;2023-04-25T10:19:25;100968.13;;;12.67;46.34
71109;BME280;59614;51.012;-1.648;2023-04-25T10:22:13;100974.09;;;13.78;47.80
71109;BME280;59614;51.012;-1.648;2023-04-25T10:24:40;100968.03;;;13.72;46.39
71109;BME280;59614;51.012;-1.648;2023-04-25T10:27:06;100963.84;;;14.01;44.37
71109;BME280;59614;51.012;-1.648;2023-04-25T10:29:32;100969.69;;;13.77;47.02
71109;BME280;59614;51.012;-1.648;2023-04-25T10:31:57;100966.97;;;13.34;44.26
71109;BME280;59614;51.012;-1.648;2023-04-25T10:34:25;100969.31;;;13.94;44.70
71109;BME280;59614;51.012;-1.648;2023-04-25T10:37:02;100971.56;;;13.71;47.63
71109;BME280;59614;51.012;-1.648;2023-04-25T10:39:28;100961.81;;;14.52;44.96
71109;BME280;59614;51.012;-1.648;2023-04-25T10:41:58;100963.03;;;13.57;46.57
71109;BME280;59614;51.012;-1.648;2023-04-25T10:44:28;100968.16;;;13.18;42.91
71109;BME280;59614;51.012;-1.648;2023-04-25T10:46:58;100963.22;;;13.46;42.04
71109;BME280;59614;51.012;-1.648;2023-04-25T10:49:34;100968.28;;;13.11;46.52
71109;BME280;59614;51.012;-1.648;2023-04-25T10:52:13;100973.03;;;13.85;46.79
71109;BME280;59614;51.012;-1.648;2023-04-25T10:54:58;100967.50;;;13.05;43.16
71109;BME280;59614;51.012;-1.648;2023-04-25T10:57:45;100960.97;;;13.71;45.36
71109;BME280;59614;51.012;-1.648;2023-04-25T11:00:18;100969.78;;;13.72;41.33
71109;BME280;59614;51.012;-1.648;2023-04-25T11:02:58;100964.88;;;13.96;40.21
71109;BME280;59614;51.012;-1.648;2023-04-25T11:05:32;100966.59;;;14.38;42.78
71109;BME280;59614;51.012;-1.648;2023-04-25T11:07:58;100966.06;;;14.59;40.08
71109;BME280;59614;51.012;-1.648;2023-04-25T11:10:32;100965.81;;;13.93;43.49
71109;BME280;59614;51.012;-1.648;2023-04-25T11:12:58;100974.94;;;12.84;42.96
71109;BME280;59614;51.012;-1.648;2023-04-25T11:15:24;100969.84;;;14.11;43.94
71109;BME280;59614;51.012;-1.648;2023-04-25T11:17:53;100972.53;;;13.67;42.84
71109;BME280;59614;51.012;-1.648;2023-04-25T11:20:19;100974.16;;;14.15;43.88
71109;BME280;59614;51.012;-1.648;2023-04-25T11:22:46;100970.31;;;14.68;42.17
71109;BME280;59614;51.012;-1.648;2023-04-25T11:25:14;100972.41;;;14.16;41.47
71109;BME280;59614;51.012;-1.648;2023-04-25T11:27:52;100972.31;;;14.19;42.42
71109;BME280;59614;51.012;-1.648;2023-04-25T11:30:19;100970.84;;;13.63;38.11
71109;BME280;59614;51.012;-1.648;2023-04-25T11:32:45;100972.50;;;13.69;40.84
71109;BME280;59614;51.012;-1.648;2023-04-25T11:35:11;100976.53;;;14.65;42.63
71109;BME280;59614;51.012;-1.648;2023-04-25T11:37:39;100975.25;;;13.64;40.18
71109;BME280;59614;51.012;-1.648;2023-04-25T11:40:06;100967.59;;;15.04;42.07
71109;BME280;59614;51.012;-1.648;2023-04-25T11:42:33;100959.72;;;13.46;39.47
71109;BME280;59614;51.012;-1.648;2023-04-25T11:44:59;100962.47;;;14.98;37.65
71109;BME280;59614;51.012;-1.648;2023-04-25T11:47:32;100952.94;;;15.87;41.55
71109;BME280;59614;51.012;-1.648;2023-04-25T11:49:59;100966.13;;;14.56;39.10
71109;BME280;59614;51.012;-1.648;2023-04-25T11:52:38;100965.91;;;15.02;37.97
71109;BME280;59614;51.012;-1.648;2023-04-25T11:55:08;100957.59;;;14.04;39.19
71109;BME280;59614;51.012;-1.648;2023-04-25T11:57:33;100966.97;;;13.34;39.36
71109;BME280;59614;51.012;-1.648;2023-04-25T12:00:13;100963.06;;;13.96;35.75
71109;BME280;59614;51.012;-1.648;2023-04-25T12:02:41;100946.81;;;13.72;35.51
71109;BME280;59614;51.012;-1.648;2023-04-25T12:05:09;100960.72;;;14.23;36.29
71109;BME280;59614;51.012;-1.648;2023-04-25T12:07:35;100957.59;;;14.43;36.27
71109;BME280;59614;51.012;-1.648;2023-04-25T12:10:05;100969.66;;;14.94;37.96
71109;BME280;59614;51.012;-1.648;2023-04-25T12:12:35;100969.41;;;15.37;36.46
71109;BME280;59614;51.012;-1.648;2023-04-25T12:15:11;100979.81;;;14.78;37.70
71109;BME280;59614;51.012;-1.648;2023-04-25T12:17:38;100982.97;;;14.55;38.11
71109;BME280;59614;51.012;-1.648;2023-04-25T12:20:13;100979.00;;;15.42;40.43
71109;BME280;59614;51.012;-1.648;2023-04-25T12:22:41;100986.22;;;14.70;38.31
71109;BME280;59614;51.012;-1.648;2023-04-25T12:25:10;100981.22;;;14.16;40.26
71109;BME280;59614;51.012;-1.648;2023-04-25T12:27:36;100993.34;;;14.28;40.99
71109;BME280;59614;51.012;-1.648;2023-04-25T12:30:02;100998.22;;;15.21;37.85
71109;BME280;59614;51.012;-1.648;2023-04-25T12:32:28;100997.16;;;15.26;39.15
71109;BME280;59614;51.012;-1.648;2023-04-25T12:34:54;100993.94;;;14.00;37.60
71109;BME280;59614;51.012;-1.648;2023-04-25T12:37:19;100985.50;;;14.24;38.87
71109;BME280;59614;51.012;-1.648;2023-04-25T12:39:45;100985.69;;;16.47;37.64
71109;BME280;59614;51.012;-1.648;2023-04-25T12:42:11;100979.97;;;16.03;33.48
71109;BME280;59614;51.012;-1.648;2023-04-25T12:44:37;100985.38;;;15.68;34.77
71109;BME280;59614;51.012;-1.648;2023-04-25T12:47:03;100995.66;;;15.49;37.79
71109;BME280;59614;51.012;-1.648;2023-04-25T12:49:29;100998.50;;;13.95;38.40